createdAt,value
2018-06-05T00:01:19.724Z,10.17
2018-06-05T00:04:52.966Z,10.00
2018-06-05T00:08:26.204Z,10.30
2018-06-05T00:11:59.436Z,10.57
2018-06-05T00:15:42.066Z,10.50
2018-06-05T00:19:15.060Z,10.50
2018-06-05T00:22:48.255Z,10.70
2018-06-05T00:26:21.480Z,10.90
2018-06-05T00:29:54.701Z,11.70
2018-06-05T00:33:27.907Z,11.07
2018-06-05T00:37:01.126Z,10.57
2018-06-05T00:40:34.343Z,10.90
2018-06-05T00:44:07.311Z,11.53
2018-06-05T00:47:40.506Z,10.50
2018-06-05T00:51:25.218Z,11.43
2018-06-05T00:54:58.457Z,11.80
2018-06-05T00:58:31.690Z,12.53
2018-06-05T01:02:04.890Z,12.20
2018-06-05T01:05:38.112Z,10.67
2018-06-05T01:09:11.329Z,11.33
2018-06-05T01:12:44.556Z,10.67
2018-06-05T01:16:17.790Z,10.67
2018-06-05T01:19:51.019Z,11.37
2018-06-05T01:23:24.271Z,11.87
2018-06-05T01:26:57.478Z,10.80
2018-06-05T01:30:30.700Z,10.80
2018-06-05T01:34:03.911Z,9.77
2018-06-05T01:37:37.119Z,11.90
2018-06-05T01:41:10.371Z,12.90
2018-06-05T01:44:43.620Z,11.80
2018-06-05T01:48:16.809Z,11.80
2018-06-05T01:51:50.033Z,15.20
2018-06-05T01:55:23.277Z,14.20
2018-06-05T01:58:56.545Z,13.20
2018-06-05T02:02:29.764Z,13.60
2018-06-05T02:06:02.977Z,13.60
2018-06-05T02:09:36.191Z,13.57
2018-06-05T02:13:09.411Z,13.63
2018-06-05T02:16:42.638Z,14.73
2018-06-05T02:20:15.867Z,15.73
2018-06-05T02:23:49.089Z,13.73
2018-06-05T02:27:22.056Z,14.03
2018-06-05T02:30:55.259Z,13.43
2018-06-05T02:34:28.487Z,14.17
2018-06-05T02:38:01.480Z,14.03
2018-06-05T02:41:34.687Z,13.77
2018-06-05T02:45:07.924Z,14.70
2018-06-05T02:48:41.127Z,13.93
2018-06-05T02:52:14.345Z,13.20
2018-06-05T02:55:47.559Z,14.83
2018-06-05T02:59:20.766Z,11.97
2018-06-05T03:02:54.374Z,13.83
2018-06-05T03:06:27.590Z,13.67
2018-06-05T03:10:00.824Z,13.07
2018-06-05T03:13:34.081Z,12.60
2018-06-05T03:17:07.295Z,14.40
2018-06-05T03:20:40.503Z,14.10
2018-06-05T03:24:13.721Z,15.13
2018-06-05T03:27:46.944Z,14.00
2018-06-05T03:31:20.165Z,15.87
2018-06-05T03:34:53.372Z,14.13
2018-06-05T03:38:26.330Z,14.77
2018-06-05T03:41:59.556Z,15.30
2018-06-05T03:45:32.510Z,16.10
2018-06-05T03:49:05.795Z,16.47
2018-06-05T03:52:39.033Z,16.70
2018-06-05T03:56:12.272Z,16.37
2018-06-05T03:59:45.491Z,16.60
2018-06-05T04:03:18.716Z,16.30
2018-06-05T04:06:51.971Z,17.20
2018-06-05T04:10:25.202Z,16.20
2018-06-05T04:13:58.431Z,17.07
2018-06-05T04:17:31.662Z,18.77
2018-06-05T04:21:04.881Z,18.77
2018-06-05T04:24:38.191Z,20.27
2018-06-05T04:28:11.413Z,20.67
2018-06-05T04:31:44.635Z,19.20
2018-06-05T04:35:17.855Z,20.57
2018-06-05T04:38:51.089Z,22.13
2018-06-05T04:42:24.307Z,19.03
2018-06-05T04:45:57.786Z,18.57
2018-06-05T04:49:31.025Z,19.83
2018-06-05T04:53:04.255Z,20.50
2018-06-05T04:56:37.499Z,16.23
2018-06-05T05:00:10.753Z,18.43
2018-06-05T05:03:43.972Z,19.97
2018-06-05T05:07:17.194Z,20.63
2018-06-05T05:10:50.440Z,19.70
2018-06-05T05:14:23.511Z,18.73
2018-06-05T05:17:56.738Z,18.90
2018-06-05T05:21:29.967Z,18.90
2018-06-05T05:25:03.223Z,21.50
2018-06-05T05:28:36.466Z,17.33
2018-06-05T05:32:09.716Z,20.60
2018-06-05T05:35:43.008Z,16.73
2018-06-05T05:39:16.385Z,18.23
2018-06-05T05:42:49.547Z,18.60
2018-06-05T05:46:22.767Z,19.83
2018-06-05T05:49:56.012Z,18.63
2018-06-05T05:53:29.231Z,19.60
2018-06-05T05:57:02.236Z,17.67
2018-06-05T06:00:35.455Z,17.03
2018-06-05T06:04:08.682Z,19.67
2018-06-05T06:07:41.928Z,18.00
2018-06-05T06:11:14.905Z,17.77
2018-06-05T06:14:49.323Z,17.33
2018-06-05T06:18:22.533Z,17.50
2018-06-05T06:21:55.768Z,21.73
2018-06-05T06:25:29.024Z,18.37
2018-06-05T06:29:02.260Z,17.20
2018-06-05T06:32:35.515Z,17.47
2018-06-05T06:36:08.746Z,17.57
2018-06-05T06:39:41.728Z,16.77
2018-06-05T06:43:14.943Z,17.40
2018-06-05T06:46:47.934Z,17.37
2018-06-05T06:50:21.168Z,16.40
2018-06-05T06:53:55.091Z,17.13
2018-06-05T06:57:29.036Z,18.03
2018-06-05T07:01:02.276Z,17.43
2018-06-05T07:04:35.523Z,17.87
2018-06-05T07:08:08.762Z,18.10
2018-06-05T07:11:41.789Z,17.60
2018-06-05T07:15:15.004Z,16.80
2018-06-05T07:18:48.276Z,16.70
2018-06-05T07:22:21.496Z,18.53
2018-06-05T07:25:54.728Z,18.23
2018-06-05T07:29:27.959Z,18.30
2018-06-05T07:33:02.323Z,18.53
2018-06-05T07:36:35.568Z,17.83
2018-06-05T07:40:08.920Z,17.17
2018-06-05T07:43:42.154Z,16.83
2018-06-05T07:47:15.372Z,16.30
2018-06-05T07:50:48.587Z,17.20
2018-06-05T07:54:21.836Z,18.10
2018-06-05T07:57:55.133Z,15.30
2018-06-05T08:01:28.363Z,17.03
2018-06-05T08:05:01.691Z,16.17
2018-06-05T08:08:34.914Z,15.43
2018-06-05T08:12:08.127Z,16.63
2018-06-05T08:15:41.379Z,16.40
2018-06-05T08:19:14.591Z,15.13
2018-06-05T08:22:52.089Z,18.23
2018-06-05T08:26:31.494Z,15.60
2018-06-05T08:30:04.723Z,16.70
2018-06-05T08:33:37.953Z,16.27
2018-06-05T08:37:11.204Z,16.63
2018-06-05T08:40:44.443Z,15.53
2018-06-05T08:44:17.682Z,16.77
2018-06-05T08:47:50.914Z,18.93
2018-06-05T08:51:24.143Z,14.73
2018-06-05T08:54:57.371Z,18.47
2018-06-05T08:58:30.636Z,15.50
2018-06-05T09:02:03.886Z,16.53
2018-06-05T09:05:37.140Z,16.47
2018-06-05T09:09:10.447Z,16.73
2018-06-05T09:12:43.719Z,16.43
2018-06-05T09:16:16.939Z,14.80
2018-06-05T09:19:50.198Z,14.90
2018-06-05T09:23:23.450Z,14.13
2018-06-05T09:26:56.687Z,13.87
2018-06-05T09:30:29.939Z,14.83
2018-06-05T09:34:03.175Z,15.37
2018-06-05T09:37:36.455Z,13.77
2018-06-05T09:41:09.718Z,16.03
2018-06-05T09:44:42.954Z,14.23
2018-06-05T09:48:16.212Z,14.17
2018-06-05T09:51:49.235Z,12.77
2018-06-05T09:55:22.517Z,12.67
2018-06-05T09:58:55.800Z,13.23
2018-06-05T10:02:29.051Z,11.10
2018-06-05T10:06:02.300Z,11.80
2018-06-05T10:09:35.293Z,13.10
2018-06-05T10:13:08.552Z,13.50
2018-06-05T10:16:41.845Z,12.00
2018-06-05T10:20:15.095Z,10.73
2018-06-05T10:23:48.127Z,10.13
2018-06-05T10:27:21.368Z,10.73
2018-06-05T10:30:54.600Z,11.43
2018-06-05T10:34:27.831Z,12.40
2018-06-05T10:38:01.080Z,11.40
2018-06-05T10:41:34.321Z,9.47
2018-06-05T10:45:07.544Z,10.30
2018-06-05T10:48:40.767Z,8.87
2018-06-05T10:52:14.076Z,8.73
2018-06-05T10:55:47.314Z,10.80
2018-06-05T10:59:20.544Z,11.37
2018-06-05T11:02:53.776Z,10.83
2018-06-05T11:06:27.031Z,11.83
2018-06-05T11:10:00.280Z,11.10
2018-06-05T11:13:33.294Z,11.03
2018-06-05T11:17:06.296Z,13.10
2018-06-05T11:20:39.527Z,9.53
2018-06-05T11:24:12.823Z,11.43
2018-06-05T11:27:46.004Z,9.43
2018-06-05T11:31:19.260Z,10.13
2018-06-05T11:34:52.523Z,8.53
2018-06-05T11:38:25.760Z,9.13
2018-06-05T11:41:59.031Z,12.70
2018-06-05T11:45:32.281Z,9.73
2018-06-05T11:49:05.260Z,11.33
2018-06-05T11:52:38.259Z,9.50
2018-06-05T11:56:11.254Z,10.83
2018-06-05T11:59:44.222Z,11.00
2018-06-05T12:03:17.472Z,10.17
2018-06-05T12:06:50.715Z,9.30
2018-06-05T12:10:23.963Z,9.40
2018-06-05T12:13:57.189Z,10.53
2018-06-05T12:17:30.447Z,10.57
2018-06-05T12:21:03.428Z,10.20
2018-06-05T12:24:36.640Z,9.17
2018-06-05T12:28:09.627Z,8.90
2018-06-05T12:31:42.875Z,9.73
2018-06-05T12:35:16.113Z,9.60
2018-06-05T12:38:49.367Z,9.70
2018-06-05T12:42:22.604Z,9.40
2018-06-05T12:45:55.860Z,8.57
2018-06-05T12:49:29.187Z,10.13
2018-06-05T12:53:02.444Z,9.43
2018-06-05T12:56:35.726Z,10.10
2018-06-05T13:00:09.776Z,9.20
2018-06-05T13:03:43.007Z,8.73
2018-06-05T13:07:16.238Z,7.30
2018-06-05T13:10:49.469Z,8.30
2018-06-05T13:14:22.722Z,8.10
2018-06-05T13:17:55.961Z,8.70
2018-06-05T13:21:28.956Z,7.63
2018-06-05T13:25:01.946Z,9.73
2018-06-05T13:28:35.164Z,8.97
2018-06-05T13:32:08.427Z,9.07
2018-06-05T13:35:41.672Z,8.57
2018-06-05T13:39:14.930Z,9.43
2018-06-05T13:42:47.983Z,9.57
2018-06-05T13:46:21.216Z,15.17
2018-06-05T13:49:54.442Z,8.60
2018-06-05T13:53:27.675Z,8.63
2018-06-05T13:57:00.924Z,7.90
2018-06-05T14:00:34.143Z,8.63
2018-06-05T14:04:07.392Z,8.03
2018-06-05T14:07:40.626Z,8.80
2018-06-05T14:11:13.840Z,8.20
2018-06-05T14:14:47.079Z,7.13
2018-06-05T14:18:20.305Z,7.83
2018-06-05T14:21:53.552Z,7.50
2018-06-05T14:25:26.791Z,8.03
2018-06-05T14:29:00.109Z,8.13
2018-06-05T14:32:33.301Z,7.20
2018-06-05T14:36:06.707Z,7.23
2018-06-05T14:39:39.950Z,7.37
2018-06-05T14:43:13.187Z,7.47
2018-06-05T14:46:46.488Z,6.87
2018-06-05T14:50:19.695Z,6.80
2018-06-05T14:53:52.935Z,6.13
2018-06-05T14:57:25.925Z,6.10
2018-06-05T15:00:59.167Z,7.43
2018-06-05T15:04:32.399Z,7.00
2018-06-05T15:08:05.810Z,7.07
2018-06-05T15:11:39.040Z,7.13
2018-06-05T15:15:12.275Z,6.83
2018-06-05T15:18:45.545Z,6.70
2018-06-05T15:22:18.762Z,7.27
2018-06-05T15:25:52.098Z,5.80
2018-06-05T15:29:25.339Z,6.37
2018-06-05T15:32:58.576Z,5.50
2018-06-05T15:36:31.804Z,6.37
2018-06-05T15:40:05.104Z,5.97
2018-06-05T15:43:38.355Z,5.77
2018-06-05T15:47:11.609Z,6.07
2018-06-05T16:04:48.023Z,5.20
2018-06-05T16:08:21.455Z,6.37
2018-06-05T16:13:20.568Z,4.53
2018-06-05T16:16:56.688Z,4.97
2018-06-05T16:20:53.801Z,5.17
2018-06-05T16:24:50.121Z,8.23
2018-06-05T16:32:38.808Z,6.20
2018-06-05T16:36:31.058Z,8.53
2018-06-05T16:40:04.332Z,9.20
2018-06-05T16:43:37.567Z,10.43
2018-06-05T16:47:10.820Z,11.23
2018-06-05T16:50:44.036Z,9.90
2018-06-05T16:54:17.279Z,11.33
2018-06-05T16:57:50.556Z,11.77
2018-06-05T17:01:23.775Z,12.50
2018-06-05T17:04:57.013Z,12.83
2018-06-05T17:08:30.240Z,14.13
2018-06-05T17:12:03.487Z,14.83
2018-06-05T17:15:36.700Z,13.10
2018-06-05T17:19:09.675Z,14.50
2018-06-05T17:22:42.900Z,15.60
2018-06-05T17:26:15.870Z,14.87
2018-06-05T17:29:49.100Z,14.40
2018-06-05T17:33:22.342Z,15.33
2018-06-05T17:36:55.601Z,14.40
2018-06-05T17:40:28.905Z,13.50
2018-06-05T17:44:02.709Z,15.30
2018-06-05T17:47:39.600Z,15.20
2018-06-05T17:51:12.811Z,17.57
2018-06-05T17:54:46.288Z,15.13
2018-06-05T17:58:21.492Z,15.10
2018-06-05T18:01:54.750Z,16.03
2018-06-05T18:05:27.971Z,17.03
2018-06-05T18:09:01.207Z,18.83
2018-06-05T18:12:34.505Z,18.47
2018-06-05T18:16:07.682Z,19.60
2018-06-05T18:19:40.952Z,18.83
2018-06-05T18:23:14.188Z,19.03
2018-06-05T18:26:47.445Z,19.07
2018-06-05T18:30:20.696Z,20.13
2018-06-05T18:33:53.948Z,20.47
2018-06-05T18:37:27.191Z,20.17
2018-06-05T18:41:00.443Z,21.00
2018-06-05T18:44:33.675Z,20.57
2018-06-05T18:48:06.943Z,22.43
2018-06-05T18:51:40.199Z,20.93
2018-06-05T18:55:13.440Z,21.57
2018-06-05T18:58:46.691Z,20.67
2018-06-05T19:02:19.940Z,19.47
2018-06-05T19:05:53.159Z,23.33
2018-06-05T19:09:26.390Z,20.83
2018-06-05T19:12:59.657Z,21.10
2018-06-05T19:16:32.920Z,20.77
2018-06-05T19:20:06.147Z,20.53
2018-06-05T19:23:39.400Z,20.53
2018-06-05T19:27:12.670Z,21.53
2018-06-05T19:30:45.904Z,21.83
2018-06-05T19:34:19.144Z,18.60
2018-06-05T19:37:52.377Z,19.70
2018-06-05T19:41:26.631Z,19.63
2018-06-05T19:44:59.875Z,19.33
2018-06-05T19:48:33.159Z,18.53
2018-06-05T19:52:06.195Z,20.67
2018-06-05T19:55:39.440Z,18.30
2018-06-05T19:59:12.824Z,17.57
2018-06-05T20:02:46.074Z,18.20
2018-06-05T20:06:19.307Z,15.03
2018-06-05T20:09:52.567Z,16.07
2018-06-05T20:13:25.839Z,17.30
2018-06-05T20:16:58.825Z,16.00
2018-06-05T20:20:32.060Z,16.77
2018-06-05T20:24:05.360Z,17.00
2018-06-05T20:27:38.613Z,17.03
2018-06-05T20:31:11.868Z,15.50
2018-06-05T20:34:45.099Z,14.20
2018-06-05T20:38:18.329Z,15.10
2018-06-05T20:41:51.312Z,15.63
2018-06-05T20:45:24.544Z,14.77
2018-06-05T20:48:57.767Z,15.50
2018-06-05T20:52:31.008Z,15.63
2018-06-05T20:56:04.243Z,16.40
2018-06-05T20:59:37.497Z,14.80
2018-06-05T21:03:10.749Z,16.43
2018-06-05T21:06:43.981Z,16.10
2018-06-05T21:10:17.211Z,13.80
2018-06-05T21:13:50.441Z,13.90
2018-06-05T21:17:23.664Z,13.57
2018-06-05T21:20:56.899Z,13.60
2018-06-05T21:24:30.166Z,13.77
2018-06-05T21:28:03.375Z,16.63
2018-06-05T21:31:36.606Z,15.53
2018-06-05T21:35:09.847Z,14.90
2018-06-05T21:38:43.143Z,13.97
2018-06-05T21:42:16.371Z,13.50
2018-06-05T21:45:49.603Z,15.00
2018-06-05T21:49:22.827Z,17.47
2018-06-05T21:52:55.807Z,17.40
2018-06-05T21:56:29.056Z,15.73
2018-06-05T22:00:02.301Z,16.43
2018-06-05T22:03:35.287Z,18.27
2018-06-05T22:07:08.632Z,17.67
2018-06-05T22:10:41.902Z,17.83
2018-06-05T22:14:17.870Z,18.13
2018-06-05T22:17:51.074Z,18.27
2018-06-05T22:21:24.063Z,20.00
2018-06-05T22:24:57.299Z,19.80
2018-06-05T22:28:30.540Z,19.50
2018-06-05T22:32:03.768Z,20.20
2018-06-05T22:35:36.995Z,20.93
2018-06-05T22:39:10.307Z,18.10
2018-06-05T22:42:43.535Z,19.60
2018-06-05T22:46:16.778Z,21.43
2018-06-05T22:49:50.003Z,21.13
2018-06-05T22:53:23.240Z,21.00
2018-06-05T22:56:56.471Z,21.50
2018-06-05T23:00:31.823Z,22.60
2018-06-05T23:04:05.284Z,21.93
2018-06-05T23:07:38.529Z,21.37
2018-06-05T23:11:11.783Z,21.30
2018-06-05T23:14:45.036Z,23.50
2018-06-05T23:18:18.261Z,22.53
2018-06-05T23:21:51.495Z,25.67
2018-06-05T23:25:24.735Z,23.80
2018-06-05T23:28:57.959Z,23.47
2018-06-05T23:32:31.178Z,22.63
2018-06-05T23:36:04.437Z,24.30
2018-06-05T23:39:37.703Z,24.93
2018-06-05T23:43:10.745Z,25.47
2018-06-05T23:46:43.975Z,23.20
2018-06-05T23:50:17.212Z,26.53
2018-06-05T23:53:50.473Z,22.97
2018-06-05T23:57:23.723Z,25.03
